Time;durP1;ratioP1;P1;durP2;ratioP2;P2;SDS_P1;SDS_P2;PMS_P1;PMS_P2;Temp;Humidity;BMP_temperature;BMP_pressure;BME280_temperature;BME280_humidity;BME280_pressure;Samples;Min_cycle;Max_cycle;Signal;HPM_P1;HPM_P2
2021/05/02 00:02:02;;;;;;;10.10;7.63;;;;;;;10.17;70.42;99835.97;623235;230;24930;-80
2021/05/02 00:04:30;;;;;;;9.10;7.67;;;;;;;10.15;67.77;99832.71;614368;230;23896;-79
2021/05/02 00:07:02;;;;;;;9.10;8.00;;;;;;;10.72;70.14;99833.08;632828;223;41375;-79
2021/05/02 00:09:26;;;;;;;9.63;8.67;;;;;;;10.21;77.28;99876.27;637996;224;24803;-78
2021/05/02 00:11:54;;;;;;;8.73;7.83;;;;;;;10.07;79.75;99891.91;635666;225;24881;-79
2021/05/02 00:14:22;;;;;;;10.93;8.70;;;;;;;10.00;77.31;99894.31;638682;225;23969;-78
2021/05/02 00:16:51;;;;;;;8.47;7.60;;;;;;;10.19;73.42;99872.52;634317;225;24836;-79
2021/05/02 00:19:19;;;;;;;8.30;7.40;;;;;;;10.03;71.65;99864.13;637366;224;24836;-79
2021/05/02 00:21:47;;;;;;;7.73;6.93;;;;;;;10.12;67.29;99839.00;621945;229;27020;-80
2021/05/02 00:24:17;;;;;;;7.40;6.70;;;;;;;10.18;69.15;99851.89;614721;230;24869;-78
2021/05/02 00:26:43;;;;;;;7.40;6.70;;;;;;;10.20;68.97;99847.35;618748;229;23893;-79
2021/05/02 00:29:11;;;;;;;8.80;7.00;;;;;;;10.36;66.41;99839.20;614507;230;24842;-77
2021/05/02 00:31:41;;;;;;;6.77;6.07;;;;;;;10.34;64.26;99828.63;636416;225;24800;-78
2021/05/02 00:34:10;;;;;;;7.70;6.57;;;;;;;10.47;64.68;99829.53;623612;229;24895;-79
2021/05/02 00:36:38;;;;;;;10.07;6.60;;;;;;;10.54;65.19;99828.73;638736;224;24838;-80
2021/05/02 00:39:06;;;;;;;7.87;6.87;;;;;;;10.50;65.09;99832.63;637240;224;24790;-79
2021/05/02 00:41:35;;;;;;;7.13;6.43;;;;;;;10.48;64.57;99831.97;637732;225;24848;-79
2021/05/02 00:44:04;;;;;;;7.23;5.70;;;;;;;10.58;63.54;99828.78;635843;225;24822;-79
2021/05/02 00:46:34;;;;;;;8.70;7.40;;;;;;;11.06;65.43;99838.25;631724;225;33199;-79
2021/05/02 00:49:04;;;;;;;10.80;7.20;;;;;;;10.71;66.59;99843.97;633733;225;23742;-79
2021/05/02 00:51:33;;;;;;;7.80;7.00;;;;;;;10.50;66.10;99839.13;621165;229;28026;-79
2021/05/02 00:54:10;;;;;;;7.77;6.73;;;;;;;10.45;67.95;99849.67;635296;221;24809;-79
2021/05/02 00:56:41;;;;;;;8.50;7.63;;;;;;;10.47;69.68;99859.42;637506;225;24875;-79
2021/05/02 00:59:09;;;;;;;10.30;7.10;;;;;;;10.36;68.19;99866.98;637299;225;23832;-79
2021/05/02 01:01:37;;;;;;;8.60;7.00;;;;;;;10.91;65.47;99854.95;614031;229;34817;-79
2021/05/02 01:04:05;;;;;;;10.00;7.40;;;;;;;10.46;65.57;99847.40;614124;229;24875;-79
2021/05/02 01:06:33;;;;;;;9.57;7.90;;;;;;;10.52;64.67;99847.59;637762;224;24837;-79
2021/05/02 01:09:01;;;;;;;8.10;6.87;;;;;;;10.49;64.66;99841.89;630635;225;24841;-77
2021/05/02 01:11:29;;;;;;;9.00;7.83;;;;;;;10.41;64.59;99847.84;635483;225;31307;-79
2021/05/02 01:13:57;;;;;;;10.30;9.20;;;;;;;10.52;64.21;99850.19;636834;225;24872;-78
2021/05/02 01:16:26;;;;;;;10.10;9.00;;;;;;;10.49;65.64;99851.80;625866;229;24835;-77
2021/05/02 01:18:54;;;;;;;11.57;9.30;;;;;;;10.52;64.68;99852.78;620745;229;24844;-78
2021/05/02 01:21:24;;;;;;;12.37;9.70;;;;;;;10.38;66.48;99859.84;637714;224;24831;-79
2021/05/02 01:23:52;;;;;;;10.63;9.30;;;;;;;10.10;68.47;99877.31;636990;222;24807;-79
2021/05/02 01:26:20;;;;;;;11.10;9.90;;;;;;;10.09;69.96;99892.09;640168;224;24816;-80
2021/05/02 01:28:48;;;;;;;11.50;9.63;;;;;;;10.10;68.16;99892.91;637157;224;26141;-79
2021/05/02 01:31:16;;;;;;;10.93;9.83;;;;;;;10.19;68.31;99886.00;624204;228;24834;-79
2021/05/02 01:33:43;;;;;;;12.10;9.70;;;;;;;10.26;70.16;99898.74;621940;229;24937;-79
2021/05/02 01:36:11;;;;;;;12.33;10.37;;;;;;;10.15;71.90;99911.97;632026;225;24804;-79
2021/05/02 01:38:39;;;;;;;9.93;8.93;;;;;;;10.16;72.43;99920.09;625994;225;24862;-79
2021/05/02 01:41:07;;;;;;;10.43;9.43;;;;;;;10.19;70.79;99914.59;638846;223;24917;-78
2021/05/02 01:43:35;;;;;;;10.03;9.03;;;;;;;10.28;70.82;99911.95;637885;221;24813;-79
2021/05/02 01:46:03;;;;;;;9.97;8.97;;;;;;;10.34;72.05;99907.92;619517;229;24859;-79
2021/05/02 01:48:31;;;;;;;10.03;8.60;;;;;;;10.29;71.78;99914.06;626254;226;24854;-79
2021/05/02 01:50:59;;;;;;;9.20;7.87;;;;;;;10.94;69.62;99911.87;617277;229;33272;-79
2021/05/02 01:53:28;;;;;;;8.20;7.47;;;;;;;10.35;70.13;99904.34;636440;225;24853;-79
2021/05/02 01:55:56;;;;;;;9.73;7.83;;;;;;;10.34;71.56;99912.63;637278;225;24835;-76
2021/05/02 01:58:24;;;;;;;11.50;7.97;;;;;;;10.39;70.65;99914.28;626375;228;24828;-80
2021/05/02 02:00:52;;;;;;;9.17;8.20;;;;;;;10.40;72.10;99923.71;625999;224;24832;-79
2021/05/02 02:03:20;;;;;;;9.90;7.60;;;;;;;10.05;72.51;99934.13;638141;221;27997;-79
2021/05/02 02:05:48;;;;;;;8.10;7.30;;;;;;;10.05;73.19;99939.31;636663;225;28026;-79
2021/05/02 02:08:16;;;;;;;8.63;7.73;;;;;;;9.66;73.96;99948.66;618954;229;24851;-79
2021/05/02 02:10:44;;;;;;;7.70;7.00;;;;;;;9.53;74.78;99950.30;636748;225;23837;-78
2021/05/02 02:13:12;;;;;;;7.20;6.37;;;;;;;9.72;74.80;99961.56;637790;221;24862;-79
2021/05/02 02:15:40;;;;;;;8.07;7.27;;;;;;;9.75;73.86;99954.29;636852;225;24822;-79
2021/05/02 02:18:08;;;;;;;8.83;6.53;;;;;;;9.86;72.08;99953.27;637052;225;25002;-79
2021/05/02 02:20:37;;;;;;;6.03;5.47;;;;;;;9.80;71.36;99948.64;614198;229;24898;-79
2021/05/02 02:23:09;;;;;;;6.47;5.87;;;;;;;9.88;71.82;99942.25;615791;229;23989;-79
2021/05/02 02:25:35;;;;;;;8.57;6.20;;;;;;;9.64;72.02;99942.80;622503;230;24959;-80
2021/05/02 02:28:03;;;;;;;7.40;6.30;;;;;;;9.63;72.19;99947.66;625675;225;24872;-79
2021/05/02 02:30:31;;;;;;;8.40;6.40;;;;;;;9.30;70.78;99944.36;630995;224;24851;-79
2021/05/02 02:32:59;;;;;;;8.00;6.00;;;;;;;9.43;71.00;99953.45;627206;224;24837;-79
2021/05/02 02:35:27;;;;;;;7.60;5.67;;;;;;;9.65;69.17;99942.32;631216;225;24848;-78
2021/05/02 02:37:55;;;;;;;6.60;5.70;;;;;;;9.86;68.78;99941.58;631687;224;32836;-79
2021/05/02 02:40:23;;;;;;;7.13;5.90;;;;;;;9.64;70.74;99949.29;638667;224;24828;-80
2021/05/02 02:42:51;;;;;;;7.20;6.50;;;;;;;9.29;72.30;99955.22;638744;221;24816;-79
2021/05/02 02:45:19;;;;;;;7.27;6.00;;;;;;;9.06;74.37;99969.50;624997;229;24886;-79
2021/05/02 02:47:47;;;;;;;9.10;6.97;;;;;;;9.09;75.96;99984.77;622625;229;24888;-79
2021/05/02 02:50:15;;;;;;;6.27;5.60;;;;;;;9.30;69.24;99956.85;629658;225;24813;-79
2021/05/02 02:52:44;;;;;;;8.13;5.80;;;;;;;9.54;68.69;99953.71;635473;221;24806;-79
2021/05/02 02:55:12;;;;;;;5.97;5.37;;;;;;;9.52;68.77;99952.56;637545;224;24816;-79
2021/05/02 02:57:41;;;;;;;8.00;6.27;;;;;;;9.60;66.32;99944.06;636849;225;25866;-79
2021/05/02 03:00:10;;;;;;;9.80;6.10;;;;;;;9.72;66.45;99940.30;618977;230;24850;-79
2021/05/02 03:02:38;;;;;;;8.70;6.50;;;;;;;9.57;68.76;99940.47;615082;230;27086;-80
2021/05/02 03:05:07;;;;;;;6.90;5.90;;;;;;;9.64;68.36;99944.09;639280;224;24871;-78
2021/05/02 03:07:35;;;;;;;8.50;6.40;;;;;;;9.57;72.19;99964.28;638773;225;24845;-78
2021/05/02 03:10:03;;;;;;;7.83;6.57;;;;;;;9.63;73.12;99980.59;634676;224;24847;-79
2021/05/02 03:12:31;;;;;;;7.60;6.57;;;;;;;9.67;72.32;99978.86;621200;229;24899;-80
2021/05/02 03:14:59;;;;;;;8.77;6.47;;;;;;;9.59;69.72;99973.59;637460;225;24933;-77
2021/05/02 03:17:30;;;;;;;7.27;5.53;;;;;;;9.70;69.70;99971.25;618677;230;24885;-78
2021/05/02 03:20:00;;;;;;;7.40;6.50;;;;;;;9.55;69.60;99964.43;626132;228;25050;-79
2021/05/02 03:22:30;;;;;;;7.40;6.47;;;;;;;9.71;69.66;99965.09;630824;226;27094;-79
2021/05/02 03:24:59;;;;;;;7.90;6.30;;;;;;;10.15;68.63;99959.56;624246;226;33304;-79
2021/05/02 03:27:27;;;;;;;10.27;6.10;;;;;;;9.95;68.83;99957.56;617839;230;23729;-79
2021/05/02 03:29:55;;;;;;;7.50;6.80;;;;;;;9.85;68.67;99968.49;639179;224;24812;-78
2021/05/02 03:32:23;;;;;;;7.40;6.40;;;;;;;9.73;67.90;99972.28;637841;225;24850;-80
2021/05/02 03:34:51;;;;;;;6.50;5.90;;;;;;;9.87;68.35;99970.48;616516;229;24881;-80
2021/05/02 03:37:19;;;;;;;7.33;6.63;;;;;;;9.83;68.25;99970.42;624534;228;24869;-79
2021/05/02 03:39:48;;;;;;;7.53;6.73;;;;;;;9.79;69.48;99971.20;629693;228;24860;-79
2021/05/02 03:42:16;;;;;;;10.30;7.10;;;;;;;9.61;70.06;99982.05;619035;229;23957;-79
2021/05/02 03:44:44;;;;;;;12.63;7.83;;;;;;;9.66;70.43;99986.31;637263;224;23874;-79
2021/05/02 03:47:12;;;;;;;11.20;7.47;;;;;;;9.44;70.92;99994.50;638636;225;24847;-80
2021/05/02 03:49:40;;;;;;;10.40;8.77;;;;;;;9.22;73.08;100006.04;632781;225;24873;-79
2021/05/02 03:52:08;;;;;;;8.73;7.90;;;;;;;9.08;73.14;100015.57;636629;225;24810;-79
2021/05/02 03:54:36;;;;;;;9.93;8.17;;;;;;;9.01;71.86;100008.84;627894;225;24920;-78
2021/05/02 03:57:05;;;;;;;10.50;8.23;;;;;;;9.09;71.53;100010.72;635451;224;26060;-77
2021/05/02 03:59:33;;;;;;;13.10;8.97;;;;;;;9.08;71.10;100012.49;625626;228;24855;-79
2021/05/02 04:02:00;;;;;;;9.90;9.00;;;;;;;9.02;72.92;100022.63;628433;228;28051;-78
2021/05/02 04:04:28;;;;;;;10.07;8.03;;;;;;;9.04;72.29;100029.78;637502;225;24882;-80
2021/05/02 04:06:58;;;;;;;13.83;7.90;;;;;;;8.82;74.47;100034.31;627024;227;24950;-79
2021/05/02 04:09:26;;;;;;;9.97;8.97;;;;;;;8.84;74.16;100046.66;617883;229;24857;-79
2021/05/02 04:11:54;;;;;;;10.70;8.73;;;;;;;8.79;73.44;100044.14;614305;229;24878;-79
2021/05/02 04:14:22;;;;;;;10.60;9.03;;;;;;;8.78;73.99;100045.92;623583;228;23887;-79
2021/05/02 04:16:56;;;;;;;11.70;9.70;;;;;;;9.09;72.65;100043.14;633368;225;32894;-79
2021/05/02 04:19:23;;;;;;;15.30;10.40;;;;;;;8.89;72.73;100050.97;627584;227;25904;-79
2021/05/02 04:21:51;;;;;;;11.07;9.50;;;;;;;8.99;73.04;100060.49;627022;227;24845;-79
2021/05/02 04:24:19;;;;;;;14.63;9.50;;;;;;;8.82;74.60;100060.23;627157;228;24853;-79
2021/05/02 04:26:47;;;;;;;11.33;9.30;;;;;;;8.93;74.12;100061.88;628899;227;24896;-79
2021/05/02 04:29:15;;;;;;;11.40;9.83;;;;;;;9.37;72.75;100063.02;623588;226;32973;-78
2021/05/02 04:31:43;;;;;;;13.63;10.67;;;;;;;8.91;74.80;100069.80;626721;228;24886;-79
2021/05/02 04:34:11;;;;;;;11.03;9.60;;;;;;;8.75;74.93;100073.91;631677;221;24867;-79
2021/05/02 04:36:39;;;;;;;11.27;9.23;;;;;;;8.81;75.17;100080.64;634732;224;24855;-79
2021/05/02 04:39:07;;;;;;;11.13;9.90;;;;;;;8.80;74.41;100086.79;634309;225;24824;-78
2021/05/02 04:41:35;;;;;;;14.67;10.80;;;;;;;8.76;75.29;100084.14;635324;224;24855;-79
2021/05/02 04:44:03;;;;;;;15.13;10.60;;;;;;;8.76;74.67;100089.80;637636;224;24856;-79
2021/05/02 04:46:31;;;;;;;13.60;11.00;;;;;;;8.54;74.93;100090.88;616754;229;24876;-79
2021/05/02 04:48:59;;;;;;;11.90;10.40;;;;;;;8.75;74.14;100096.77;637422;225;24806;-80
2021/05/02 04:51:27;;;;;;;13.30;10.97;;;;;;;8.67;74.51;100099.20;637610;225;24856;-78
2021/05/02 04:53:55;;;;;;;10.53;8.40;;;;;;;8.53;75.32;100109.97;639548;219;24825;-80
2021/05/02 04:56:23;;;;;;;11.47;8.20;;;;;;;9.03;74.32;100117.64;633739;224;32845;-79
2021/05/02 04:58:51;;;;;;;12.10;7.40;;;;;;;8.66;75.47;100122.20;639284;225;29103;-79
2021/05/02 05:01:19;;;;;;;9.23;7.27;;;;;;;8.64;75.26;100129.30;624922;229;24860;-79
2021/05/02 05:03:47;;;;;;;14.93;7.93;;;;;;;8.56;76.55;100133.02;636941;221;24837;-78
2021/05/02 05:06:15;;;;;;;10.17;9.17;;;;;;;8.46;75.95;100139.98;640131;224;24852;-78
2021/05/02 05:08:42;;;;;;;12.50;9.10;;;;;;;8.52;75.35;100135.55;639010;223;23915;-79
2021/05/02 05:11:10;;;;;;;9.40;8.10;;;;;;;8.38;76.61;100138.52;626174;229;24903;-78
2021/05/02 05:13:38;;;;;;;10.87;8.50;;;;;;;8.51;76.60;100149.46;625598;229;24901;-78
2021/05/02 05:16:06;;;;;;;11.25;10.05;;;;;;;8.93;75.29;100142.28;609696;229;33637;-79
2021/05/02 05:18:34;;;;;;;18.77;11.50;;;;;;;8.39;77.10;100146.63;614329;230;24449;-79
2021/05/02 05:21:02;;;;;;;13.57;11.50;;;;;;;8.23;79.19;100156.99;619979;229;24896;-79
2021/05/02 05:23:30;;;;;;;15.30;12.00;;;;;;;8.20;77.80;100161.63;625817;225;28091;-79
2021/05/02 05:25:58;;;;;;;17.17;12.17;;;;;;;8.39;77.37;100164.30;619326;229;25136;-79
2021/05/02 05:28:26;;;;;;;13.73;11.40;;;;;;;8.57;76.11;100161.88;617592;229;24912;-79
2021/05/02 05:30:54;;;;;;;17.37;11.57;;;;;;;8.75;78.35;100173.25;635389;225;24833;-79
2021/05/02 05:33:23;;;;;;;12.47;11.03;;;;;;;9.04;76.23;100171.16;638295;221;24794;-79
2021/05/02 05:35:50;;;;;;;15.70;12.40;;;;;;;9.41;75.56;100161.70;638143;225;24827;-78
2021/05/02 05:38:18;;;;;;;12.73;11.40;;;;;;;9.97;74.28;100159.57;622630;229;24868;-78
2021/05/02 05:40:46;;;;;;;12.60;11.20;;;;;;;10.24;72.30;100152.31;636871;225;24918;-79
2021/05/02 05:43:14;;;;;;;17.97;12.20;;;;;;;9.94;72.66;100152.55;636799;221;24906;-79
2021/05/02 05:45:42;;;;;;;16.83;12.07;;;;;;;10.10;72.92;100150.97;623303;229;24871;-79
2021/05/02 05:48:10;;;;;;;17.43;12.40;;;;;;;10.37;73.04;100152.79;636074;226;24810;-79
2021/05/02 05:50:40;;;;;;;17.17;13.07;;;;;;;10.48;73.23;100154.86;633181;225;24857;-79
2021/05/02 05:53:07;;;;;;;15.30;12.83;;;;;;;10.46;73.27;100160.70;620292;229;24873;-79
2021/05/02 05:55:35;;;;;;;13.47;12.00;;;;;;;10.17;74.07;100167.31;620973;229;24902;-79
2021/05/02 05:58:03;;;;;;;15.93;12.80;;;;;;;10.25;72.93;100172.63;618375;229;24911;-79
2021/05/02 06:00:31;;;;;;;17.77;13.10;;;;;;;10.15;72.90;100171.36;612845;229;32998;-80
2021/05/02 06:02:59;;;;;;;20.00;13.97;;;;;;;10.16;74.22;100182.56;627292;228;24862;-79
2021/05/02 06:05:27;;;;;;;14.47;12.73;;;;;;;9.80;74.77;100182.40;634336;223;24890;-79
2021/05/02 06:07:55;;;;;;;15.50;12.07;;;;;;;10.00;73.52;100184.48;628056;227;24856;-79
2021/05/02 06:10:23;;;;;;;13.60;12.10;;;;;;;9.48;75.03;100190.05;637852;224;24824;-79
2021/05/02 06:12:51;;;;;;;14.03;12.53;;;;;;;9.74;74.37;100197.26;638444;221;24871;-79
2021/05/02 06:15:19;;;;;;;14.60;12.77;;;;;;;9.42;73.92;100190.59;639154;222;24826;-79
2021/05/02 06:17:46;;;;;;;15.00;11.80;;;;;;;9.84;74.00;100190.23;621012;229;24938;-79
2021/05/02 06:20:14;;;;;;;14.87;11.80;;;;;;;10.10;73.69;100192.55;617902;229;24876;-79
2021/05/02 06:22:43;;;;;;;17.53;12.90;;;;;;;10.35;72.10;100189.81;630970;226;24825;-79
2021/05/02 06:25:12;;;;;;;13.85;12.45;;;;;;;10.99;70.23;100176.37;611667;229;32944;-79
2021/05/02 06:27:40;;;;;;;15.07;13.47;;;;;;;10.57;70.98;100174.32;619205;229;23714;-77
2021/05/02 06:30:09;;;;;;;15.53;13.03;;;;;;;10.51;71.33;100185.28;636713;225;24805;-78
2021/05/02 06:32:37;;;;;;;23.90;13.97;;;;;;;10.59;71.19;100184.09;632895;223;24849;-78
2021/05/02 06:35:06;;;;;;;14.57;13.00;;;;;;;10.67;72.32;100188.06;634015;225;24874;-79
2021/05/02 06:37:33;;;;;;;14.53;12.23;;;;;;;10.43;72.00;100193.49;634812;225;24952;-79
2021/05/02 06:40:01;;;;;;;15.80;12.87;;;;;;;10.09;71.69;100199.20;619453;228;26993;-79
2021/05/02 06:42:29;;;;;;;15.57;13.43;;;;;;;10.45;70.67;100192.38;636475;224;24836;-79
2021/05/02 06:44:57;;;;;;;16.37;12.80;;;;;;;10.84;68.99;100183.02;638241;225;24954;-79
2021/05/02 06:47:25;;;;;;;15.87;13.10;;;;;;;11.07;67.90;100182.93;635037;226;24806;-79
2021/05/02 06:49:53;;;;;;;17.17;13.37;;;;;;;11.28;67.33;100179.55;637084;225;24849;-77
2021/05/02 06:52:22;;;;;;;13.33;11.70;;;;;;;11.48;66.12;100175.45;631451;226;24873;-77
2021/05/02 06:54:49;;;;;;;17.03;11.67;;;;;;;11.65;65.07;100170.69;636175;225;24883;-76
2021/05/02 06:57:17;;;;;;;14.70;12.10;;;;;;;12.00;64.67;100166.37;626079;229;23914;-77
2021/05/02 06:59:45;;;;;;;13.90;12.10;;;;;;;12.14;63.84;100165.30;620625;228;27024;-77
2021/05/02 07:02:13;;;;;;;15.70;12.03;;;;;;;12.20;64.19;100158.63;617936;230;24864;-77
2021/05/02 07:04:41;;;;;;;16.63;13.60;;;;;;;12.70;64.41;100169.56;619609;229;24882;-77
2021/05/02 07:07:09;;;;;;;14.33;12.70;;;;;;;13.25;63.58;100174.22;635622;224;24857;-76
2021/05/02 07:09:37;;;;;;;14.30;12.50;;;;;;;13.75;62.27;100173.18;637088;223;27036;-77
2021/05/02 07:12:05;;;;;;;17.13;13.10;;;;;;;13.34;61.36;100166.69;624745;230;24894;-77
2021/05/02 07:14:33;;;;;;;14.57;12.40;;;;;;;13.52;61.29;100166.05;621222;229;24994;-77
2021/05/02 07:17:01;;;;;;;13.40;12.00;;;;;;;13.64;61.21;100163.88;637830;223;23955;-77
2021/05/02 07:19:29;;;;;;;13.97;12.23;;;;;;;13.57;62.10;100170.28;638708;224;24869;-80
2021/05/02 07:22:00;;;;;;;16.47;12.63;;;;;;;13.31;59.79;100165.72;616854;229;24851;-77
2021/05/02 07:24:27;;;;;;;13.60;12.20;;;;;;;12.95;62.38;100173.00;636946;222;24847;-78
2021/05/02 07:26:57;;;;;;;17.20;12.80;;;;;;;13.03;62.26;100180.37;640341;222;24823;-77
2021/05/02 07:29:26;;;;;;;17.93;12.80;;;;;;;13.17;63.00;100181.52;620375;229;28173;-76
2021/05/02 07:31:53;;;;;;;14.07;12.30;;;;;;;13.77;60.88;100176.44;614853;229;23895;-77
2021/05/02 07:34:22;;;;;;;20.87;12.77;;;;;;;14.38;60.51;100179.69;622749;229;23920;-79
2021/05/02 07:36:50;;;;;;;19.43;16.07;;;;;;;14.17;62.16;100180.74;624137;229;27072;-78
2021/05/02 07:39:18;;;;;;;18.53;13.13;;;;;;;14.39;58.46;100170.04;624055;229;24847;-79
2021/05/02 07:41:46;;;;;;;15.03;12.43;;;;;;;14.34;57.14;100160.56;636551;225;23845;-79
2021/05/02 07:44:14;;;;;;;13.47;11.57;;;;;;;15.25;57.04;100161.16;638226;221;28004;-78
2021/05/02 07:46:42;;;;;;;16.50;13.63;;;;;;;15.22;58.58;100161.03;624537;228;25102;-78
2021/05/02 07:49:10;;;;;;;18.73;13.90;;;;;;;15.07;58.64;100163.59;626347;228;24858;-78
2021/05/02 07:51:37;;;;;;;13.30;11.70;;;;;;;14.88;58.06;100167.16;635037;225;24133;-79
2021/05/02 07:54:06;;;;;;;12.75;10.93;;;;;;;14.69;57.94;100169.74;631410;223;32955;-78
2021/05/02 07:56:34;;;;;;;12.53;11.03;;;;;;;14.44;56.07;100162.52;637182;225;23695;-78
2021/05/02 07:59:02;;;;;;;14.47;12.10;;;;;;;13.93;58.59;100171.17;638882;225;23811;-78
2021/05/02 08:01:31;;;;;;;13.43;11.70;;;;;;;14.10;58.10;100173.27;638266;225;23831;-77
2021/05/02 08:03:59;;;;;;;15.27;12.53;;;;;;;13.95;59.66;100180.50;638144;221;24827;-78
2021/05/02 08:06:27;;;;;;;16.57;12.10;;;;;;;13.31;59.61;100190.53;637846;223;23821;-79
2021/05/02 08:08:55;;;;;;;15.07;12.40;;;;;;;13.74;61.98;100189.84;631301;225;33299;-77
2021/05/02 08:11:23;;;;;;;17.80;12.90;;;;;;;14.20;57.75;100178.59;620912;227;33227;-78
2021/05/02 08:13:51;;;;;;;17.60;13.13;;;;;;;14.26;60.49;100186.28;619827;226;23870;-78
2021/05/02 08:16:20;;;;;;;15.30;12.40;;;;;;;14.43;59.74;100194.88;616534;229;24949;-78
2021/05/02 08:18:47;;;;;;;14.53;12.93;;;;;;;14.93;58.40;100187.12;636005;225;23979;-78
2021/05/02 08:21:17;;;;;;;14.20;12.70;;;;;;;15.13;55.63;100173.36;624404;227;23919;-79
2021/05/02 08:23:43;;;;;;;18.70;12.87;;;;;;;16.00;54.98;100169.78;624021;229;23942;-78
2021/05/02 08:26:11;;;;;;;20.20;13.57;;;;;;;16.26;54.06;100173.75;630693;225;27069;-78
2021/05/02 08:28:41;;;;;;;16.10;11.90;;;;;;;15.63;53.22;100166.75;615374;228;24892;-78
2021/05/02 08:31:08;;;;;;;17.70;12.43;;;;;;;15.49;54.79;100167.52;619698;229;24885;-78
2021/05/02 08:33:36;;;;;;;17.00;13.70;;;;;;;14.93;55.74;100176.64;614511;230;23908;-78
2021/05/02 08:36:05;;;;;;;18.10;15.00;;;;;;;14.68;56.08;100172.86;632769;224;38691;-77
2021/05/02 08:38:33;;;;;;;15.27;13.67;;;;;;;14.97;55.19;100173.48;634048;224;23822;-77
2021/05/02 08:41:01;;;;;;;18.13;13.70;;;;;;;15.50;53.86;100166.52;638123;224;23915;-78
2021/05/02 08:43:29;;;;;;;15.38;13.80;;;;;;;16.23;50.85;100153.94;632800;224;43468;-77
2021/05/02 08:45:57;;;;;;;16.87;14.27;;;;;;;16.43;50.62;100146.29;617784;229;22718;-78
2021/05/02 08:48:25;;;;;;;15.60;14.00;;;;;;;16.54;50.69;100141.87;628778;225;32941;-77
2021/05/02 08:50:53;;;;;;;20.70;13.60;;;;;;;16.49;52.22;100154.76;630976;225;22701;-77
2021/05/02 08:53:21;;;;;;;16.00;12.80;;;;;;;16.29;52.83;100156.32;627205;228;24868;-78
2021/05/02 08:55:49;;;;;;;14.23;12.77;;;;;;;16.33;53.94;100161.04;628846;228;24853;-79
2021/05/02 08:58:17;;;;;;;15.53;13.00;;;;;;;15.82;53.60;100164.59;627695;227;23882;-77
2021/05/02 09:00:45;;;;;;;16.70;13.47;;;;;;;15.41;53.88;100161.02;627363;226;23861;-78
2021/05/02 09:03:13;;;;;;;13.70;12.27;;;;;;;14.61;55.23;100170.59;637815;225;24942;-77
2021/05/02 09:05:44;;;;;;;17.93;11.73;;;;;;;14.36;55.38;100176.93;628345;228;23898;-78
2021/05/02 09:08:13;;;;;;;13.25;11.85;;;;;;;14.26;57.44;100187.59;613089;230;33073;-78
2021/05/02 09:10:41;;;;;;;12.47;11.17;;;;;;;14.06;56.46;100188.45;631600;225;23695;-78
2021/05/02 09:13:14;;;;;;;12.80;10.83;;;;;;;13.54;55.68;100190.21;621956;229;24892;-78
2021/05/02 09:15:37;;;;;;;14.33;11.37;;;;;;;13.13;56.39;100188.06;617835;229;23899;-78
2021/05/02 09:18:13;;;;;;;13.80;11.57;;;;;;;13.39;55.77;100187.13;636295;225;23814;-77
2021/05/02 09:20:41;;;;;;;12.33;11.03;;;;;;;13.62;56.85;100196.72;636725;224;24788;-77
2021/05/02 09:23:10;;;;;;;11.70;10.50;;;;;;;14.14;56.04;100196.29;635459;224;24858;-77
2021/05/02 09:25:46;;;;;;;13.08;11.10;;;;;;;14.17;54.20;100190.71;631986;225;32892;-77
2021/05/02 09:28:15;;;;;;;12.33;11.13;;;;;;;14.28;55.24;100187.41;616999;229;22717;-78
2021/05/02 09:30:43;;;;;;;15.33;10.90;;;;;;;14.37;54.81;100186.41;637354;224;23808;-78
2021/05/02 09:33:25;;;;;;;11.83;10.70;;;;;;;14.32;54.62;100187.39;633145;225;24860;-78
2021/05/02 09:35:53;;;;;;;12.37;10.80;;;;;;;14.42;54.14;100186.70;616548;229;28105;-79
2021/05/02 09:38:21;;;;;;;13.43;11.17;;;;;;;14.60;52.92;100175.51;636490;225;24794;-78
2021/05/02 09:40:50;;;;;;;13.07;10.73;;;;;;;15.30;53.78;100175.85;621821;229;24840;-78
2021/05/02 09:43:27;;;;;;;12.13;10.57;;;;;;;15.12;52.33;100170.43;637902;225;23818;-79
2021/05/02 09:46:07;;;;;;;9.73;8.83;;;;;;;15.47;50.37;100168.16;637514;224;23909;-78
2021/05/02 09:48:35;;;;;;;10.37;9.37;;;;;;;15.18;51.69;100166.28;623396;228;24857;-77
2021/05/02 09:51:12;;;;;;;11.90;10.28;;;;;;;14.77;55.12;100174.42;616919;230;33037;-78
2021/05/02 09:53:40;;;;;;;10.67;9.10;;;;;;;14.61;52.52;100169.78;634494;225;23715;-76
2021/05/02 09:56:14;;;;;;;11.00;8.90;;;;;;;14.13;53.79;100177.66;633405;225;24871;-77
2021/05/02 09:58:42;;;;;;;11.60;9.73;;;;;;;13.68;54.89;100183.50;635816;225;23852;-77
2021/05/02 10:01:10;;;;;;;11.10;8.90;;;;;;;13.40;54.95;100188.27;614789;229;24853;-78
2021/05/02 10:03:44;;;;;;;10.93;9.37;;;;;;;13.64;55.13;100193.94;621243;229;28127;-77
2021/05/02 10:06:08;;;;;;;11.80;9.37;;;;;;;14.08;53.21;100185.20;633975;223;24855;-77
2021/05/02 10:08:34;;;;;;;9.80;8.80;;;;;;;14.74;52.14;100182.63;622276;230;24881;-77
2021/05/02 10:11:02;;;;;;;8.50;7.60;;;;;;;14.88;49.76;100176.33;623622;229;26059;-78
2021/05/02 10:13:30;;;;;;;10.20;7.50;;;;;;;15.02;51.13;100173.77;620475;229;24981;-77
2021/05/02 10:15:58;;;;;;;11.50;9.30;;;;;;;15.58;51.31;100170.85;637121;225;24879;-78
2021/05/02 10:18:26;;;;;;;9.50;7.97;;;;;;;15.50;48.73;100167.02;624909;230;23874;-78
2021/05/02 10:20:54;;;;;;;9.50;8.20;;;;;;;14.14;49.80;100166.70;621158;229;23900;-78
2021/05/02 10:23:22;;;;;;;8.37;7.57;;;;;;;14.01;51.93;100168.55;635213;222;24781;-78
2021/05/02 10:25:50;;;;;;;7.93;7.10;;;;;;;13.33;51.81;100167.67;636623;225;23798;-78
2021/05/02 10:28:18;;;;;;;10.10;8.17;;;;;;;13.13;54.63;100189.85;636173;225;23846;-77
2021/05/02 10:30:48;;;;;;;10.03;7.97;;;;;;;13.13;54.08;100193.77;635364;225;24821;-77
2021/05/02 10:33:15;;;;;;;7.23;6.53;;;;;;;13.14;52.58;100190.18;614959;229;23892;-77
2021/05/02 10:35:44;;;;;;;7.17;6.43;;;;;;;13.40;52.29;100185.65;637445;224;24868;-78
2021/05/02 10:38:14;;;;;;;10.77;7.13;;;;;;;14.38;52.60;100184.92;615776;229;24865;-80
2021/05/02 10:40:40;;;;;;;7.67;6.87;;;;;;;15.31;50.90;100182.72;614273;229;23884;-78
2021/05/02 10:43:09;;;;;;;8.73;6.53;;;;;;;15.32;49.69;100168.63;636007;221;24802;-73
2021/05/02 10:45:42;;;;;;;9.00;7.90;;;;;;;15.33;49.84;100176.30;637821;225;23821;-73
2021/05/02 10:48:10;;;;;;;9.50;8.60;;;;;;;15.29;52.22;100178.97;636308;225;24908;-73
2021/05/02 10:50:40;;;;;;;9.17;7.60;;;;;;;15.17;51.62;100180.87;637072;223;29056;-73
2021/05/02 10:53:09;;;;;;;7.53;6.83;;;;;;;15.12;50.22;100174.85;639156;224;27009;-72
2021/05/02 10:55:46;;;;;;;8.97;7.20;;;;;;;15.40;52.98;100185.60;637717;224;23870;-72
2021/05/02 10:58:20;;;;;;;8.00;7.20;;;;;;;15.79;52.42;100189.37;624653;229;23924;-73
2021/05/02 11:00:49;;;;;;;8.93;8.07;;;;;;;16.56;53.65;100195.02;625034;228;24856;-73
2021/05/02 11:03:27;;;;;;;10.07;7.87;;;;;;;16.37;50.91;100183.79;635473;221;23812;-73
2021/05/02 11:05:56;;;;;;;8.73;7.93;;;;;;;15.55;51.76;100181.70;638599;224;27167;-73
2021/05/02 11:08:43;;;;;;;9.73;7.93;;;;;;;14.67;54.17;100190.05;637101;224;23886;-73
2021/05/02 11:11:38;;;;;;;8.33;7.43;;;;;;;14.58;52.16;100191.88;637244;225;28037;-73
2021/05/02 11:14:29;;;;;;;9.90;8.37;;;;;;;14.52;52.46;100199.13;634353;225;23861;-73
2021/05/02 11:17:18;;;;;;;9.43;7.57;;;;;;;14.49;51.73;100196.33;633767;225;23860;-73
2021/05/02 11:19:47;;;;;;;7.20;6.53;;;;;;;14.02;54.00;100209.89;636997;224;23865;-73
2021/05/02 11:22:16;;;;;;;7.90;7.10;;;;;;;14.26;54.19;100212.44;638197;224;23818;-73
2021/05/02 11:24:54;;;;;;;8.30;7.20;;;;;;;14.20;53.96;100217.84;619459;229;25037;-73
2021/05/02 11:27:27;;;;;;;8.63;7.80;;;;;;;14.35;55.27;100222.37;623341;229;23864;-73
2021/05/02 11:30:06;;;;;;;8.73;7.83;;;;;;;14.45;55.39;100227.77;637415;224;23824;-73